sensor_id;sensor_type;location;lat;lon;timestamp;temperature;humidity
80367;DHT22;69680;42.660;23.366;2023-05-07T00:02:21;13.40;61.90
80367;DHT22;69680;42.660;23.366;2023-05-07T00:04:48;13.30;61.90
80367;DHT22;69680;42.660;23.366;2023-05-07T00:07:14;13.30;61.80
80367;DHT22;69680;42.660;23.366;2023-05-07T00:09:40;13.30;61.80
80367;DHT22;69680;42.660;23.366;2023-05-07T00:12:06;13.30;61.90
80367;DHT22;69680;42.660;23.366;2023-05-07T00:14:32;13.30;61.90
80367;DHT22;69680;42.660;23.366;2023-05-07T00:16:58;13.20;61.80
80367;DHT22;69680;42.660;23.366;2023-05-07T00:19:23;13.20;61.80
80367;DHT22;69680;42.660;23.366;2023-05-07T00:21:49;13.20;61.90
80367;DHT22;69680;42.660;23.366;2023-05-07T00:24:15;13.20;61.90
80367;DHT22;69680;42.660;23.366;2023-05-07T00:26:41;13.10;61.70
80367;DHT22;69680;42.660;23.366;2023-05-07T00:29:06;13.10;61.90
80367;DHT22;69680;42.660;23.366;2023-05-07T00:31:32;13.10;62.00
80367;DHT22;69680;42.660;23.366;2023-05-07T00:33:57;13.10;62.10
80367;DHT22;69680;42.660;23.366;2023-05-07T00:36:23;13.10;62.30
80367;DHT22;69680;42.660;23.366;2023-05-07T00:38:49;13.10;62.20
80367;DHT22;69680;42.660;23.366;2023-05-07T00:41:15;13.00;62.40
80367;DHT22;69680;42.660;23.366;2023-05-07T00:43:40;13.00;62.30
80367;DHT22;69680;42.660;23.366;2023-05-07T00:46:06;13.00;62.40
80367;DHT22;69680;42.660;23.366;2023-05-07T00:48:32;12.90;62.50
80367;DHT22;69680;42.660;23.366;2023-05-07T00:50:58;12.90;62.50
80367;DHT22;69680;42.660;23.366;2023-05-07T00:53:23;12.90;62.60
80367;DHT22;69680;42.660;23.366;2023-05-07T00:55:50;12.90;62.70
80367;DHT22;69680;42.660;23.366;2023-05-07T00:58:16;12.90;62.60
80367;DHT22;69680;42.660;23.366;2023-05-07T01:00:41;12.90;62.60
80367;DHT22;69680;42.660;23.366;2023-05-07T01:03:07;12.90;62.70
80367;DHT22;69680;42.660;23.366;2023-05-07T01:05:33;12.80;62.80
80367;DHT22;69680;42.660;23.366;2023-05-07T01:07:59;12.90;62.70
80367;DHT22;69680;42.660;23.366;2023-05-07T01:10:26;12.80;62.70
80367;DHT22;69680;42.660;23.366;2023-05-07T01:12:52;12.70;62.80
80367;DHT22;69680;42.660;23.366;2023-05-07T01:15:19;12.70;63.00
80367;DHT22;69680;42.660;23.366;2023-05-07T01:17:45;12.70;63.20
80367;DHT22;69680;42.660;23.366;2023-05-07T01:20:11;12.50;63.20
80367;DHT22;69680;42.660;23.366;2023-05-07T01:22:38;12.50;63.50
80367;DHT22;69680;42.660;23.366;2023-05-07T01:25:05;12.60;63.50
80367;DHT22;69680;42.660;23.366;2023-05-07T01:27:31;12.60;63.20
80367;DHT22;69680;42.660;23.366;2023-05-07T01:29:58;12.50;63.20
80367;DHT22;69680;42.660;23.366;2023-05-07T01:35:18;12.50;63.90
80367;DHT22;69680;42.660;23.366;2023-05-07T01:37:44;12.50;63.80
80367;DHT22;69680;42.660;23.366;2023-05-07T01:40:11;12.50;63.70
80367;DHT22;69680;42.660;23.366;2023-05-07T01:42:37;12.40;63.70
80367;DHT22;69680;42.660;23.366;2023-05-07T01:45:03;12.40;63.60
80367;DHT22;69680;42.660;23.366;2023-05-07T01:47:30;12.50;63.30
80367;DHT22;69680;42.660;23.366;2023-05-07T01:49:56;12.50;63.10
80367;DHT22;69680;42.660;23.366;2023-05-07T01:52:22;12.30;62.80
80367;DHT22;69680;42.660;23.366;2023-05-07T01:54:48;12.20;63.50
80367;DHT22;69680;42.660;23.366;2023-05-07T01:57:13;12.20;63.30
80367;DHT22;69680;42.660;23.366;2023-05-07T01:59:39;12.30;64.00
80367;DHT22;69680;42.660;23.366;2023-05-07T02:02:05;12.40;62.80
80367;DHT22;69680;42.660;23.366;2023-05-07T02:04:30;12.20;62.60
80367;DHT22;69680;42.660;23.366;2023-05-07T02:06:56;12.10;63.30
80367;DHT22;69680;42.660;23.366;2023-05-07T02:09:21;12.20;63.10
80367;DHT22;69680;42.660;23.366;2023-05-07T02:11:48;12.10;63.00
80367;DHT22;69680;42.660;23.366;2023-05-07T02:14:14;12.10;62.80
80367;DHT22;69680;42.660;23.366;2023-05-07T02:16:40;12.20;62.50
80367;DHT22;69680;42.660;23.366;2023-05-07T02:19:05;12.20;62.20
80367;DHT22;69680;42.660;23.366;2023-05-07T02:21:31;12.20;62.30
80367;DHT22;69680;42.660;23.366;2023-05-07T02:23:57;12.30;62.30
80367;DHT22;69680;42.660;23.366;2023-05-07T02:26:22;12.20;62.10
80367;DHT22;69680;42.660;23.366;2023-05-07T02:28:48;12.20;62.00
80367;DHT22;69680;42.660;23.366;2023-05-07T02:31:13;12.20;62.00
80367;DHT22;69680;42.660;23.366;2023-05-07T02:33:39;12.30;62.00
80367;DHT22;69680;42.660;23.366;2023-05-07T02:36:09;12.20;62.10
80367;DHT22;69680;42.660;23.366;2023-05-07T02:38:35;12.20;62.30
80367;DHT22;69680;42.660;23.366;2023-05-07T02:41:00;12.10;62.30
80367;DHT22;69680;42.660;23.366;2023-05-07T02:43:26;12.10;62.50
80367;DHT22;69680;42.660;23.366;2023-05-07T02:46:03;12.10;62.60
80367;DHT22;69680;42.660;23.366;2023-05-07T02:48:29;12.20;62.70
80367;DHT22;69680;42.660;23.366;2023-05-07T02:50:54;12.20;62.50
80367;DHT22;69680;42.660;23.366;2023-05-07T02:53:20;12.10;62.50
80367;DHT22;69680;42.660;23.366;2023-05-07T02:55:45;12.10;62.80
80367;DHT22;69680;42.660;23.366;2023-05-07T02:58:11;12.00;62.80
80367;DHT22;69680;42.660;23.366;2023-05-07T03:00:37;12.10;62.70
80367;DHT22;69680;42.660;23.366;2023-05-07T03:03:03;12.10;62.90
80367;DHT22;69680;42.660;23.366;2023-05-07T03:05:28;12.10;63.00
80367;DHT22;69680;42.660;23.366;2023-05-07T03:07:54;12.00;63.00
80367;DHT22;69680;42.660;23.366;2023-05-07T03:10:20;12.10;63.20
80367;DHT22;69680;42.660;23.366;2023-05-07T03:12:45;12.10;63.10
80367;DHT22;69680;42.660;23.366;2023-05-07T03:15:11;12.00;63.20
80367;DHT22;69680;42.660;23.366;2023-05-07T03:17:38;12.00;63.20
80367;DHT22;69680;42.660;23.366;2023-05-07T03:20:04;12.00;63.00
80367;DHT22;69680;42.660;23.366;2023-05-07T03:22:30;12.00;62.90
80367;DHT22;69680;42.660;23.366;2023-05-07T03:24:56;12.00;62.90
80367;DHT22;69680;42.660;23.366;2023-05-07T03:27:21;12.00;63.00
80367;DHT22;69680;42.660;23.366;2023-05-07T03:29:47;12.00;63.00
80367;DHT22;69680;42.660;23.366;2023-05-07T03:32:13;12.00;62.90
80367;DHT22;69680;42.660;23.366;2023-05-07T03:34:39;12.10;62.70
80367;DHT22;69680;42.660;23.366;2023-05-07T03:37:05;12.10;62.60
80367;DHT22;69680;42.660;23.366;2023-05-07T03:39:31;12.10;62.70
80367;DHT22;69680;42.660;23.366;2023-05-07T03:41:57;12.00;62.80
80367;DHT22;69680;42.660;23.366;2023-05-07T03:44:23;12.00;62.90
80367;DHT22;69680;42.660;23.366;2023-05-07T03:46:49;12.00;62.90
80367;DHT22;69680;42.660;23.366;2023-05-07T03:49:14;12.00;62.80
80367;DHT22;69680;42.660;23.366;2023-05-07T03:51:40;12.10;62.80
80367;DHT22;69680;42.660;23.366;2023-05-07T03:54:06;12.10;62.50
80367;DHT22;69680;42.660;23.366;2023-05-07T03:56:32;12.20;62.40
80367;DHT22;69680;42.660;23.366;2023-05-07T03:58:57;12.20;62.10
80367;DHT22;69680;42.660;23.366;2023-05-07T04:01:23;12.30;62.00
80367;DHT22;69680;42.660;23.366;2023-05-07T04:03:49;12.30;61.90
80367;DHT22;69680;42.660;23.366;2023-05-07T04:06:16;12.40;61.50
80367;DHT22;69680;42.660;23.366;2023-05-07T04:08:42;12.50;61.40
80367;DHT22;69680;42.660;23.366;2023-05-07T04:11:08;12.50;61.40
80367;DHT22;69680;42.660;23.366;2023-05-07T04:13:34;12.60;61.00
80367;DHT22;69680;42.660;23.366;2023-05-07T04:16:01;12.70;60.80
80367;DHT22;69680;42.660;23.366;2023-05-07T04:18:28;12.80;60.60
80367;DHT22;69680;42.660;23.366;2023-05-07T04:20:53;12.90;60.30
80367;DHT22;69680;42.660;23.366;2023-05-07T04:23:19;12.90;59.90
80367;DHT22;69680;42.660;23.366;2023-05-07T04:25:45;12.90;60.00
80367;DHT22;69680;42.660;23.366;2023-05-07T04:28:11;13.10;59.90
80367;DHT22;69680;42.660;23.366;2023-05-07T04:30:37;13.20;59.30
80367;DHT22;69680;42.660;23.366;2023-05-07T04:33:02;13.30;59.10
80367;DHT22;69680;42.660;23.366;2023-05-07T04:35:28;13.40;59.00
80367;DHT22;69680;42.660;23.366;2023-05-07T04:37:54;13.40;58.90
80367;DHT22;69680;42.660;23.366;2023-05-07T04:40:20;13.50;58.50
80367;DHT22;69680;42.660;23.366;2023-05-07T04:42:45;13.50;58.60
80367;DHT22;69680;42.660;23.366;2023-05-07T04:45:11;13.60;58.40
80367;DHT22;69680;42.660;23.366;2023-05-07T04:47:38;13.70;58.40
80367;DHT22;69680;42.660;23.366;2023-05-07T04:50:05;13.80;57.70
80367;DHT22;69680;42.660;23.366;2023-05-07T04:52:30;14.00;57.30
80367;DHT22;69680;42.660;23.366;2023-05-07T04:57:24;14.30;57.00
80367;DHT22;69680;42.660;23.366;2023-05-07T04:59:49;14.40;56.70
80367;DHT22;69680;42.660;23.366;2023-05-07T05:02:15;14.60;56.40
80367;DHT22;69680;42.660;23.366;2023-05-07T05:04:41;14.70;56.10
80367;DHT22;69680;42.660;23.366;2023-05-07T05:07:07;14.80;55.90
80367;DHT22;69680;42.660;23.366;2023-05-07T05:09:32;14.80;55.70
80367;DHT22;69680;42.660;23.366;2023-05-07T05:11:59;14.90;55.80
80367;DHT22;69680;42.660;23.366;2023-05-07T05:14:25;15.00;55.50
80367;DHT22;69680;42.660;23.366;2023-05-07T05:16:50;15.10;55.50
80367;DHT22;69680;42.660;23.366;2023-05-07T05:19:16;15.20;55.40
80367;DHT22;69680;42.660;23.366;2023-05-07T05:21:42;15.40;54.90
80367;DHT22;69680;42.660;23.366;2023-05-07T05:24:07;15.60;54.30
80367;DHT22;69680;42.660;23.366;2023-05-07T05:26:33;15.50;54.00
80367;DHT22;69680;42.660;23.366;2023-05-07T05:28:59;15.70;54.00
80367;DHT22;69680;42.660;23.366;2023-05-07T05:31:25;15.80;53.80
80367;DHT22;69680;42.660;23.366;2023-05-07T05:33:51;16.10;53.30
80367;DHT22;69680;42.660;23.366;2023-05-07T05:36:16;16.20;52.80
80367;DHT22;69680;42.660;23.366;2023-05-07T05:38:42;16.40;52.50
80367;DHT22;69680;42.660;23.366;2023-05-07T05:41:08;16.40;52.60
80367;DHT22;69680;42.660;23.366;2023-05-07T05:43:33;16.30;52.30
80367;DHT22;69680;42.660;23.366;2023-05-07T05:45:59;16.40;52.40
80367;DHT22;69680;42.660;23.366;2023-05-07T05:48:25;16.50;52.40
80367;DHT22;69680;42.660;23.366;2023-05-07T05:50:51;16.50;52.60
80367;DHT22;69680;42.660;23.366;2023-05-07T05:53:17;16.30;52.80
80367;DHT22;69680;42.660;23.366;2023-05-07T05:55:43;16.50;53.10
80367;DHT22;69680;42.660;23.366;2023-05-07T05:58:09;17.50;51.40
80367;DHT22;69680;42.660;23.366;2023-05-07T06:00:35;18.10;49.00
80367;DHT22;69680;42.660;23.366;2023-05-07T06:03:00;18.70;48.20
80367;DHT22;69680;42.660;23.366;2023-05-07T06:05:26;19.20;47.10
80367;DHT22;69680;42.660;23.366;2023-05-07T06:07:52;19.90;45.90
80367;DHT22;69680;42.660;23.366;2023-05-07T06:10:18;21.20;43.00
80367;DHT22;69680;42.660;23.366;2023-05-07T06:12:44;22.30;40.80
80367;DHT22;69680;42.660;23.366;2023-05-07T06:15:10;24.40;37.20
80367;DHT22;69680;42.660;23.366;2023-05-07T06:17:36;26.60;33.80
80367;DHT22;69680;42.660;23.366;2023-05-07T06:20:02;28.30;31.00
80367;DHT22;69680;42.660;23.366;2023-05-07T06:22:27;30.00;29.50
80367;DHT22;69680;42.660;23.366;2023-05-07T06:24:53;30.90;28.10
80367;DHT22;69680;42.660;23.366;2023-05-07T06:27:18;32.00;27.50
80367;DHT22;69680;42.660;23.366;2023-05-07T06:29:44;32.80;26.10
80367;DHT22;69680;42.660;23.366;2023-05-07T06:32:11;33.90;25.70
80367;DHT22;69680;42.660;23.366;2023-05-07T06:34:38;34.80;24.70
80367;DHT22;69680;42.660;23.366;2023-05-07T06:37:04;35.40;24.10
80367;DHT22;69680;42.660;23.366;2023-05-07T06:39:30;35.00;24.00
80367;DHT22;69680;42.660;23.366;2023-05-07T06:41:56;35.60;23.50
80367;DHT22;69680;42.660;23.366;2023-05-07T06:44:21;36.30;22.90
80367;DHT22;69680;42.660;23.366;2023-05-07T06:46:47;36.70;22.80
80367;DHT22;69680;42.660;23.366;2023-05-07T06:49:13;37.40;22.60
80367;DHT22;69680;42.660;23.366;2023-05-07T06:51:38;38.10;21.90
80367;DHT22;69680;42.660;23.366;2023-05-07T06:54:04;38.60;21.70
80367;DHT22;69680;42.660;23.366;2023-05-07T06:56:31;39.00;21.20
80367;DHT22;69680;42.660;23.366;2023-05-07T06:58:56;39.00;21.00
80367;DHT22;69680;42.660;23.366;2023-05-07T07:01:22;39.30;20.90
80367;DHT22;69680;42.660;23.366;2023-05-07T07:03:48;39.50;20.70
80367;DHT22;69680;42.660;23.366;2023-05-07T07:06:14;38.90;21.00
80367;DHT22;69680;42.660;23.366;2023-05-07T07:08:39;38.00;21.40
80367;DHT22;69680;42.660;23.366;2023-05-07T07:11:06;38.60;21.20
80367;DHT22;69680;42.660;23.366;2023-05-07T07:13:31;38.80;20.60
80367;DHT22;69680;42.660;23.366;2023-05-07T07:15:57;38.80;20.60
80367;DHT22;69680;42.660;23.366;2023-05-07T07:18:23;39.40;20.30
80367;DHT22;69680;42.660;23.366;2023-05-07T07:20:49;39.70;20.10
80367;DHT22;69680;42.660;23.366;2023-05-07T07:23:15;40.30;20.00
80367;DHT22;69680;42.660;23.366;2023-05-07T07:25:40;39.90;19.70
80367;DHT22;69680;42.660;23.366;2023-05-07T07:28:06;39.30;20.00
80367;DHT22;69680;42.660;23.366;2023-05-07T07:30:32;39.80;20.00
80367;DHT22;69680;42.660;23.366;2023-05-07T07:32:58;40.60;19.70
80367;DHT22;69680;42.660;23.366;2023-05-07T07:35:31;40.40;19.20
80367;DHT22;69680;42.660;23.366;2023-05-07T07:37:57;39.60;19.60
80367;DHT22;69680;42.660;23.366;2023-05-07T07:40:23;39.50;19.70
80367;DHT22;69680;42.660;23.366;2023-05-07T07:42:50;39.90;19.80
80367;DHT22;69680;42.660;23.366;2023-05-07T07:45:16;40.60;19.20
80367;DHT22;69680;42.660;23.366;2023-05-07T07:47:42;40.90;18.80
80367;DHT22;69680;42.660;23.366;2023-05-07T07:50:08;40.20;19.20
80367;DHT22;69680;42.660;23.366;2023-05-07T07:52:34;41.10;18.90
80367;DHT22;69680;42.660;23.366;2023-05-07T07:55:00;42.00;18.80
80367;DHT22;69680;42.660;23.366;2023-05-07T07:57:25;40.80;18.80
80367;DHT22;69680;42.660;23.366;2023-05-07T07:59:51;41.40;18.70
80367;DHT22;69680;42.660;23.366;2023-05-07T08:02:17;41.20;18.10
80367;DHT22;69680;42.660;23.366;2023-05-07T08:04:43;40.10;18.70
80367;DHT22;69680;42.660;23.366;2023-05-07T08:07:09;39.50;19.10
80367;DHT22;69680;42.660;23.366;2023-05-07T08:09:37;40.20;19.10
80367;DHT22;69680;42.660;23.366;2023-05-07T08:12:03;41.30;18.60
80367;DHT22;69680;42.660;23.366;2023-05-07T08:14:28;42.20;18.00
80367;DHT22;69680;42.660;23.366;2023-05-07T08:16:55;43.10;17.70
80367;DHT22;69680;42.660;23.366;2023-05-07T08:19:20;43.40;17.20
80367;DHT22;69680;42.660;23.366;2023-05-07T08:21:47;43.30;17.10
80367;DHT22;69680;42.660;23.366;2023-05-07T08:24:13;43.10;17.00
80367;DHT22;69680;42.660;23.366;2023-05-07T08:26:39;43.60;17.00
80367;DHT22;69680;42.660;23.366;2023-05-07T08:29:05;42.90;16.80
80367;DHT22;69680;42.660;23.366;2023-05-07T08:31:31;42.70;17.30
80367;DHT22;69680;42.660;23.366;2023-05-07T08:33:57;43.30;17.00
80367;DHT22;69680;42.660;23.366;2023-05-07T08:36:23;43.70;16.70
80367;DHT22;69680;42.660;23.366;2023-05-07T08:38:49;44.10;16.50
80367;DHT22;69680;42.660;23.366;2023-05-07T08:41:15;44.40;16.30
80367;DHT22;69680;42.660;23.366;2023-05-07T08:43:41;44.60;16.30
80367;DHT22;69680;42.660;23.366;2023-05-07T08:46:09;44.80;16.00
80367;DHT22;69680;42.660;23.366;2023-05-07T08:48:38;44.70;15.80
80367;DHT22;69680;42.660;23.366;2023-05-07T08:51:04;44.60;15.90
80367;DHT22;69680;42.660;23.366;2023-05-07T08:53:30;44.80;15.90
80367;DHT22;69680;42.660;23.366;2023-05-07T08:55:56;44.60;15.70
80367;DHT22;69680;42.660;23.366;2023-05-07T08:58:22;44.60;15.90
80367;DHT22;69680;42.660;23.366;2023-05-07T09:00:48;43.00;15.90
80367;DHT22;69680;42.660;23.366;2023-05-07T09:03:14;42.10;16.60
80367;DHT22;69680;42.660;23.366;2023-05-07T09:05:39;42.10;16.80
80367;DHT22;69680;42.660;23.366;2023-05-07T09:08:06;42.30;16.60
80367;DHT22;69680;42.660;23.366;2023-05-07T09:10:33;42.70;16.50
80367;DHT22;69680;42.660;23.366;2023-05-07T09:12:59;42.90;16.40
80367;DHT22;69680;42.660;23.366;2023-05-07T09:15:26;42.80;16.60
80367;DHT22;69680;42.660;23.366;2023-05-07T09:17:52;43.00;16.30
80367;DHT22;69680;42.660;23.366;2023-05-07T09:20:18;42.90;16.10
80367;DHT22;69680;42.660;23.366;2023-05-07T09:22:43;42.90;16.40
80367;DHT22;69680;42.660;23.366;2023-05-07T09:25:09;42.80;16.10
80367;DHT22;69680;42.660;23.366;2023-05-07T09:27:35;39.60;17.00
80367;DHT22;69680;42.660;23.366;2023-05-07T09:30:07;39.50;17.40
80367;DHT22;69680;42.660;23.366;2023-05-07T09:32:35;39.70;17.30
80367;DHT22;69680;42.660;23.366;2023-05-07T09:35:03;39.90;17.40
80367;DHT22;69680;42.660;23.366;2023-05-07T09:37:31;39.80;17.60
80367;DHT22;69680;42.660;23.366;2023-05-07T09:39:58;39.30;17.90
80367;DHT22;69680;42.660;23.366;2023-05-07T09:42:24;39.00;18.40
80367;DHT22;69680;42.660;23.366;2023-05-07T09:44:51;38.50;18.60
80367;DHT22;69680;42.660;23.366;2023-05-07T09:47:19;38.00;19.00
80367;DHT22;69680;42.660;23.366;2023-05-07T09:49:47;37.40;19.00
80367;DHT22;69680;42.660;23.366;2023-05-07T09:52:14;35.50;19.40
80367;DHT22;69680;42.660;23.366;2023-05-07T09:54:40;33.10;20.50
80367;DHT22;69680;42.660;23.366;2023-05-07T09:57:12;33.00;21.90
80367;DHT22;69680;42.660;23.366;2023-05-07T09:59:39;33.10;22.00
80367;DHT22;69680;42.660;23.366;2023-05-07T10:02:09;32.80;21.50
80367;DHT22;69680;42.660;23.366;2023-05-07T10:04:35;32.40;21.90
80367;DHT22;69680;42.660;23.366;2023-05-07T10:07:03;32.20;21.90
80367;DHT22;69680;42.660;23.366;2023-05-07T10:09:30;32.20;21.70
80367;DHT22;69680;42.660;23.366;2023-05-07T10:11:56;32.20;21.70
80367;DHT22;69680;42.660;23.366;2023-05-07T10:14:22;32.20;21.80
80367;DHT22;69680;42.660;23.366;2023-05-07T10:16:49;32.20;21.50
80367;DHT22;69680;42.660;23.366;2023-05-07T10:19:14;32.10;21.50
80367;DHT22;69680;42.660;23.366;2023-05-07T10:21:45;31.90;21.60
80367;DHT22;69680;42.660;23.366;2023-05-07T10:24:26;31.10;21.70
80367;DHT22;69680;42.660;23.366;2023-05-07T10:26:53;30.70;21.90
80367;DHT22;69680;42.660;23.366;2023-05-07T10:29:32;29.60;22.80
80367;DHT22;69680;42.660;23.366;2023-05-07T10:31:59;29.10;23.10
80367;DHT22;69680;42.660;23.366;2023-05-07T10:34:41;27.90;23.90
80367;DHT22;69680;42.660;23.366;2023-05-07T10:37:09;27.10;24.30
80367;DHT22;69680;42.660;23.366;2023-05-07T10:39:36;26.90;24.90
80367;DHT22;69680;42.660;23.366;2023-05-07T10:42:13;27.00;25.20
80367;DHT22;69680;42.660;23.366;2023-05-07T10:44:39;27.20;25.30
80367;DHT22;69680;42.660;23.366;2023-05-07T10:52:19;27.30;24.80
80367;DHT22;69680;42.660;23.366;2023-05-07T10:54:45;27.20;25.20
80367;DHT22;69680;42.660;23.366;2023-05-07T10:59:56;27.10;25.60
80367;DHT22;69680;42.660;23.366;2023-05-07T11:02:22;27.00;25.50
80367;DHT22;69680;42.660;23.366;2023-05-07T11:05:22;26.90;25.60
80367;DHT22;69680;42.660;23.366;2023-05-07T11:07:55;26.70;25.60
80367;DHT22;69680;42.660;23.366;2023-05-07T11:10:21;26.60;25.80
80367;DHT22;69680;42.660;23.366;2023-05-07T11:12:48;26.50;25.60
80367;DHT22;69680;42.660;23.366;2023-05-07T11:15:15;26.40;25.30
80367;DHT22;69680;42.660;23.366;2023-05-07T11:18:01;26.30;25.90
80367;DHT22;69680;42.660;23.366;2023-05-07T11:26:06;25.70;26.00
80367;DHT22;69680;42.660;23.366;2023-05-07T11:28:41;25.70;26.30
80367;DHT22;69680;42.660;23.366;2023-05-07T11:31:08;25.50;25.80
80367;DHT22;69680;42.660;23.366;2023-05-07T11:33:34;25.60;25.50
80367;DHT22;69680;42.660;23.366;2023-05-07T11:36:02;25.60;25.40
80367;DHT22;69680;42.660;23.366;2023-05-07T11:38:35;25.60;25.40
80367;DHT22;69680;42.660;23.366;2023-05-07T11:41:01;25.50;25.60
80367;DHT22;69680;42.660;23.366;2023-05-07T11:43:28;24.80;25.40
80367;DHT22;69680;42.660;23.366;2023-05-07T11:45:53;24.60;26.60
80367;DHT22;69680;42.660;23.366;2023-05-07T11:48:21;24.50;26.70
80367;DHT22;69680;42.660;23.366;2023-05-07T11:51:06;24.50;27.50
80367;DHT22;69680;42.660;23.366;2023-05-07T11:53:39;24.70;27.40
80367;DHT22;69680;42.660;23.366;2023-05-07T11:56:13;25.00;27.40
80367;DHT22;69680;42.660;23.366;2023-05-07T11:58:40;25.20;27.00
80367;DHT22;69680;42.660;23.366;2023-05-07T12:01:10;25.10;26.70
80367;DHT22;69680;42.660;23.366;2023-05-07T12:03:37;25.20;26.30
80367;DHT22;69680;42.660;23.366;2023-05-07T12:06:05;25.10;26.60
80367;DHT22;69680;42.660;23.366;2023-05-07T12:08:31;25.10;26.80
80367;DHT22;69680;42.660;23.366;2023-05-07T12:10:57;25.20;26.50
80367;DHT22;69680;42.660;23.366;2023-05-07T12:13:25;25.20;25.10
80367;DHT22;69680;42.660;23.366;2023-05-07T12:15:55;25.20;24.70
80367;DHT22;69680;42.660;23.366;2023-05-07T12:18:22;25.20;24.30
80367;DHT22;69680;42.660;23.366;2023-05-07T12:20:48;25.30;24.40
80367;DHT22;69680;42.660;23.366;2023-05-07T12:23:15;25.10;25.00
80367;DHT22;69680;42.660;23.366;2023-05-07T12:25:42;25.20;25.00
80367;DHT22;69680;42.660;23.366;2023-05-07T12:28:16;24.80;24.90
80367;DHT22;69680;42.660;23.366;2023-05-07T12:30:43;24.70;25.80
80367;DHT22;69680;42.660;23.366;2023-05-07T12:33:10;24.80;26.10
80367;DHT22;69680;42.660;23.366;2023-05-07T12:35:42;25.00;25.80
80367;DHT22;69680;42.660;23.366;2023-05-07T12:38:13;24.90;26.20
80367;DHT22;69680;42.660;23.366;2023-05-07T12:40:44;24.70;26.50
80367;DHT22;69680;42.660;23.366;2023-05-07T12:43:26;24.70;26.30
80367;DHT22;69680;42.660;23.366;2023-05-07T12:45:57;24.60;26.40
80367;DHT22;69680;42.660;23.366;2023-05-07T12:48:25;24.40;26.10
80367;DHT22;69680;42.660;23.366;2023-05-07T12:50:56;24.30;26.60
80367;DHT22;69680;42.660;23.366;2023-05-07T12:53:26;24.30;26.20
80367;DHT22;69680;42.660;23.366;2023-05-07T12:55:54;24.40;26.10
80367;DHT22;69680;42.660;23.366;2023-05-07T12:58:31;24.50;25.90
80367;DHT22;69680;42.660;23.366;2023-05-07T13:00:59;24.60;26.10
80367;DHT22;69680;42.660;23.366;2023-05-07T13:03:30;24.30;26.30
80367;DHT22;69680;42.660;23.366;2023-05-07T13:05:58;24.10;26.80
80367;DHT22;69680;42.660;23.366;2023-05-07T13:08:44;24.10;26.80
80367;DHT22;69680;42.660;23.366;2023-05-07T13:11:10;24.20;26.70
80367;DHT22;69680;42.660;23.366;2023-05-07T13:13:37;24.20;26.60
80367;DHT22;69680;42.660;23.366;2023-05-07T13:16:05;24.40;26.60
80367;DHT22;69680;42.660;23.366;2023-05-07T13:18:32;24.40;26.50
80367;DHT22;69680;42.660;23.366;2023-05-07T13:20:58;24.40;26.60
80367;DHT22;69680;42.660;23.366;2023-05-07T13:23:24;24.40;26.80
80367;DHT22;69680;42.660;23.366;2023-05-07T13:25:50;24.50;27.00
80367;DHT22;69680;42.660;23.366;2023-05-07T13:28:18;24.60;26.80
80367;DHT22;69680;42.660;23.366;2023-05-07T13:30:43;24.50;26.50
80367;DHT22;69680;42.660;23.366;2023-05-07T13:33:09;24.50;26.60
80367;DHT22;69680;42.660;23.366;2023-05-07T13:35:35;24.80;26.80
80367;DHT22;69680;42.660;23.366;2023-05-07T13:38:01;24.50;26.60
80367;DHT22;69680;42.660;23.366;2023-05-07T13:40:26;24.70;27.10
80367;DHT22;69680;42.660;23.366;2023-05-07T13:42:53;24.70;27.00
80367;DHT22;69680;42.660;23.366;2023-05-07T13:45:19;24.70;26.50
80367;DHT22;69680;42.660;23.366;2023-05-07T13:47:45;24.40;27.30
80367;DHT22;69680;42.660;23.366;2023-05-07T13:50:12;24.10;27.30
80367;DHT22;69680;42.660;23.366;2023-05-07T13:52:43;24.00;27.50
80367;DHT22;69680;42.660;23.366;2023-05-07T13:55:11;24.10;27.20
80367;DHT22;69680;42.660;23.366;2023-05-07T13:57:37;24.30;27.10
80367;DHT22;69680;42.660;23.366;2023-05-07T14:00:03;24.10;27.00
80367;DHT22;69680;42.660;23.366;2023-05-07T14:02:31;23.70;27.50
80367;DHT22;69680;42.660;23.366;2023-05-07T14:04:56;23.80;27.40
80367;DHT22;69680;42.660;23.366;2023-05-07T14:07:22;23.90;27.60
80367;DHT22;69680;42.660;23.366;2023-05-07T14:09:48;24.10;27.60
80367;DHT22;69680;42.660;23.366;2023-05-07T14:12:13;24.20;27.70
80367;DHT22;69680;42.660;23.366;2023-05-07T14:14:39;24.20;27.60
80367;DHT22;69680;42.660;23.366;2023-05-07T14:17:04;23.80;27.70
80367;DHT22;69680;42.660;23.366;2023-05-07T14:19:30;23.50;27.90
80367;DHT22;69680;42.660;23.366;2023-05-07T14:21:56;23.40;28.30
80367;DHT22;69680;42.660;23.366;2023-05-07T14:24:22;23.60;28.20
80367;DHT22;69680;42.660;23.366;2023-05-07T14:26:47;23.70;27.80
80367;DHT22;69680;42.660;23.366;2023-05-07T14:29:13;23.90;27.90
80367;DHT22;69680;42.660;23.366;2023-05-07T14:31:40;24.00;28.10
80367;DHT22;69680;42.660;23.366;2023-05-07T14:34:06;24.10;28.10
80367;DHT22;69680;42.660;23.366;2023-05-07T14:36:32;24.10;28.40
80367;DHT22;69680;42.660;23.366;2023-05-07T14:38:58;24.30;28.20
80367;DHT22;69680;42.660;23.366;2023-05-07T14:41:24;24.40;27.80
80367;DHT22;69680;42.660;23.366;2023-05-07T14:43:50;24.50;27.70
80367;DHT22;69680;42.660;23.366;2023-05-07T14:46:19;24.50;27.70
80367;DHT22;69680;42.660;23.366;2023-05-07T14:48:47;24.60;27.70
80367;DHT22;69680;42.660;23.366;2023-05-07T14:51:13;24.70;27.80
80367;DHT22;69680;42.660;23.366;2023-05-07T14:53:40;24.70;27.70
80367;DHT22;69680;42.660;23.366;2023-05-07T14:56:06;24.70;27.50
80367;DHT22;69680;42.660;23.366;2023-05-07T14:58:32;24.50;27.90
80367;DHT22;69680;42.660;23.366;2023-05-07T15:00:59;24.60;27.70
80367;DHT22;69680;42.660;23.366;2023-05-07T15:03:25;24.60;27.90
80367;DHT22;69680;42.660;23.366;2023-05-07T15:05:51;24.60;27.80
80367;DHT22;69680;42.660;23.366;2023-05-07T15:08:17;24.50;27.70
80367;DHT22;69680;42.660;23.366;2023-05-07T15:10:43;24.50;27.70
80367;DHT22;69680;42.660;23.366;2023-05-07T15:13:10;24.50;28.00
80367;DHT22;69680;42.660;23.366;2023-05-07T15:15:36;24.60;28.20
80367;DHT22;69680;42.660;23.366;2023-05-07T15:18:02;24.60;28.20
80367;DHT22;69680;42.660;23.366;2023-05-07T15:20:28;24.60;27.90
80367;DHT22;69680;42.660;23.366;2023-05-07T15:22:54;24.50;27.80
80367;DHT22;69680;42.660;23.366;2023-05-07T15:25:20;24.40;28.30
80367;DHT22;69680;42.660;23.366;2023-05-07T15:27:46;24.30;28.30
80367;DHT22;69680;42.660;23.366;2023-05-07T15:30:12;24.30;28.30
80367;DHT22;69680;42.660;23.366;2023-05-07T15:32:40;24.30;28.10